Карточка аэропорта UAKK

Внимание!
Информация на этой странице в стадии наполнения.
Если вы не увидели какой-то информации, или заметили неточность - пожалуйста сообщите нам!
Спасибо!
Команда RU-STAFF
Название аэропортаКараганда
Название аэропорта (англ.)Karaganda
Превышение1768 ft. (538.9 m.)
Координаты49°40.302', 73°20.118'
Высота перехода10000ft
Эшелон переходаFL120, QNH<733:FL130
Коды ответчика0630-0637, 7220-7227
Зона ОрВДАстана РПИ (UACN)
Данные METARUAKK 250200Z 03003MPS 010V070 9999 BKN005 18/17 Q1004 NOSIG RMK QBB150 QFE706/0942
Проноз погоды (TAF)UAKK 242300Z 2500/2524 VRB02MPS 1000 BR SCT007 BKN015 TX31/2509Z TN18/2501Z TEMPO 2500/2505 34004MPS 0300 FG VV001 BECMG 2505/2506 9999 NSW TEMPO 2506/2512 07005MPS 5000 -SHRA BKN030CB
NOTAMshow/hide NOTAM
AWOS   TABLE

Информация о ВПП

ВПП Длина ВПП (м.) Покрытие Курс ВПП Частота ILS
053601Железобетон50109.9
233601Железобетон230111.7

Диспетчерские позиции




Спутниковое изображение